Latest Coastal Weather Observations for Lucinda

IDQ60701

Issued at 3:02 am EST Wednesday 1 July 2015 (issued every 10 minutes, with the page automatically refreshed every 10 minutes)

About coastal observations | Map of coastal stations | Coastal observations for QLD | Marine services | Other Formats
Station Details ID: 032141 Name: LUCINDA POINT Lat: -18.52 Lon: 146.39 Height: 10.0 m
Data from the previous 72 hours. | See also: Recent months for locations in Queensland
Date/Time
EST
Temp

°C
Wind Pressure Rain
since 9am
mm
Weather Cloud Vis
km
Sea
Height
m
Swell
Dir
 
Speed
knots
Gust
knots
hPa Trend Height
m
Period
s
Dir
01/03:00am 21.8 S 10 13 1020.4 - 0.0 - - - - - - -
01/02:30am 21.7 S 9 14 1020.4 - 0.0 - - - - - - -
01/02:00am 21.8 SSE 9 13 1020.6 - 0.0 - - - - - - -
01/01:30am 21.9 SE 11 17 1020.9 - 0.0 - - - - - - -
01/01:00am 21.9 SSE 9 12 1021.1 - 0.0 - - - - - - -
01/12:30am 22.1 S 10 13 1021.0 - 0.0 - - - - - - -
01/12:00am 22.2 S 10 14 1020.9 - 0.0 - - - - - - -
 
Date/Time
EST
Temp

°C
Wind Pressure Rain
since 9am
mm
Weather Cloud Vis
km
Sea
Height
m
Swell
Dir
 
Speed
knots
Gust
knots
hPa Trend Height
m
Period
s
Dir
30/11:30pm 22.3 SSE 9 15 1021.2 - 0.0 - - - - - - -
30/11:00pm 22.6 SE 13 18 1021.3 - 0.0 - - - - - - -
30/10:30pm 22.7 SE 17 22 1021.4 - 0.0 - - - - - - -
30/10:00pm 22.8 ESE 16 22 1021.4 - 0.0 - - - - - - -
30/09:30pm 22.6 ESE 16 19 1021.4 - 0.0 - - - - - - -
30/09:00pm 22.5 SE 18 21 1021.2 - 0.0 - - - - - - -
30/08:30pm 22.4 SE 18 21 1021.0 - 0.0 - - - - - - -
30/08:00pm 22.4 SE 16 20 1020.8 - 0.0 - - - - - - -
30/07:30pm 22.5 SE 13 18 1020.4 - 0.0 - - - - - - -
30/07:00pm 22.5 SE 14 18 1020.1 - 0.0 - - - - - - -
30/06:30pm 22.5 ESE 17 19 1019.8 - 0.0 - - - - - - -
30/06:00pm 22.7 SE 19 23 1019.5 - 0.0 - - - - - - -
30/05:30pm 23.0 SE 17 21 1019.4 - 0.0 - - - - - - -
30/05:00pm 23.1 SE 15 23 1019.1 - 0.0 - - - - - - -
30/04:30pm 22.8 SE 13 20 1018.8 - 0.0 - - - - - - -
30/04:00pm 22.9 SE 15 19 1018.4 - 0.0 - - - - - - -
30/03:30pm 23.0 SE 20 23 1018.3 - 0.0 - - - - - - -
30/03:00pm 23.1 SE 10 15 1018.7 - 0.0 - - - - - - -
30/02:30pm 23.2 SSE 8 14 1019.0 - 0.0 - - - - - - -
30/02:00pm 23.4 SE 10 16 1019.1 - 0.0 - - - - - - -
30/01:30pm 23.3 S 9 14 1019.6 - 0.0 - - - - - - -
30/01:00pm 23.4 SSE 8 15 1019.9 - 0.0 - - - - - - -
30/12:30pm 23.4 SE 9 16 1020.2 - 0.0 - - - - - - -
30/12:00pm 22.9 S 7 10 1020.8 - 0.0 - - - - - - -
30/11:30am 22.0 S 12 15 1021.1 - 0.0 - - - - - - -
30/11:00am 21.7 S 13 17 1021.3 - 0.0 - - - - - - -
30/10:30am 22.1 SSE 8 15 1021.3 - 0.0 - - - - - - -
30/10:00am 21.9 SSE 10 16 1021.5 - 0.0 - - - - - - -
30/09:30am 23.0 SE 10 18 1021.3 - 0.0 - - - - - - -
30/09:04am 23.4 SE 16 26 1020.8 - 0.0 - - - - - - -
30/09:00am 23.5 SE 15 22 1020.8 - 9.2 - - - - - - -
30/08:30am 23.2 SE 13 23 1020.5 - 9.2 - - - - - - -
30/08:00am 23.2 SE 15 24 1020.1 - 9.2 - - - - - - -
30/07:30am 23.1 SE 12 19 1019.7 - 9.2 - - - - - - -
30/07:00am 23.1 ESE 13 21 1019.2 - 9.2 - - - - - - -
30/06:30am 23.0 SE 13 23 1018.9 - 9.2 - - - - - - -
30/06:00am 23.0 SE 14 21 1018.6 - 9.2 - - - - - - -
30/05:30am 22.4 SSE 9 14 1018.4 - 9.2 - - - - - - -
30/05:00am 21.2 SE 11 20 1018.5 - 9.2 - - - - - - -
30/04:30am 20.2 SSE 10 14 1018.7 - 9.2 - - - - - - -
30/04:00am 19.5 S 13 16 1018.8 - 7.0 - - - - - - -
30/03:30am 19.5 S 19 23 1018.8 - 5.2 - - - - - - -
30/03:00am 20.0 S 15 20 1018.9 - 4.6 Recent precip. - - - - - -
30/02:30am 20.0 S 16 21 1018.9 - 4.6 - - - - - - -
30/02:00am 20.2 S 19 23 1018.9 - 4.0 - - - - - - -
30/01:30am 19.9 S 20 24 1019.3 - 4.0 - - - - - - -
30/01:00am 19.9 S 19 23 1019.6 - 4.0 - - - - - - -
30/12:30am 20.3 S 17 22 1019.6 - 3.6 - - - - - - -
30/12:00am 20.7 S 13 22 1019.7 - 3.6 Recent precip. - - - - - -
 
Date/Time
EST
Temp

°C
Wind Pressure Rain
since 9am
mm
Weather Cloud Vis
km
Sea
Height
m
Swell
Dir
 
Speed
knots
Gust
knots
hPa Trend Height
m
Period
s
Dir
29/11:30pm 20.7 S 13 19 1020.0 - 3.2 - - - - - - -
29/11:00pm 21.0 SSE 11 19 1020.0 - 2.2 - - - - - - -
29/10:30pm 22.4 SE 13 23 1020.1 - 2.0 - - - - - - -
29/10:00pm 22.1 SE 16 27 1019.9 - 2.0 - - - - - - -
29/09:35pm 22.5 SE 18 28 1019.7 - 2.0 - - - - - - -
29/09:30pm 22.7 SE 19 28 1019.6 - 2.0 - - - - - - -
29/09:15pm 22.8 SE 15 27 1019.5 - 2.0 - - - - - - -
29/09:00pm 22.9 SSE 13 22 1019.6 - 2.0 - - - - - - -
29/08:30pm 23.0 SE 17 29 1019.3 - 2.0 - - - - - - -
29/08:26pm 22.9 SSE 15 25 1019.4 - 2.0 - - - - - - -
29/08:00pm 22.8 SSE 13 23 1019.3 - 2.0 - - - - - - -
29/07:30pm 22.6 SE 13 24 1019.2 - 2.0 - - - - - - -
29/07:09pm 22.6 SE 15 26 1018.9 - 2.0 - - - - - - -
29/07:00pm 22.8 SSE 14 25 1018.7 - 2.0 - - - - - - -
29/06:30pm 22.8 SE 15 25 1018.6 - 2.0 - - - - - - -
29/06:00pm 22.9 SE 20 34 1018.2 - 2.0 - - - - - - -
29/05:30pm 23.0 SE 19 29 1018.0 - 2.0 - - - - - - -
29/05:00pm 22.9 ESE 18 28 1017.8 - 2.0 - - - - - - -
29/04:38pm 22.8 SE 15 25 1017.7 - 2.0 - - - - - - -
29/04:30pm 22.8 SE 15 28 1017.8 - 2.0 - - - - - - -
29/04:10pm 22.8 SE 16 29 1017.7 - 2.0 - - - - - - -
29/04:00pm 22.8 SE 14 22 1017.8 - 2.0 - - - - - - -
29/03:30pm 21.9 SE 13 21 1017.9 - 2.0 - - - - - - -
29/03:07pm 21.1 SE 15 25 1018.1 - 2.0 - - - - - - -
29/03:00pm 21.1 ESE 14 25 1018.2 - 2.0 Recent precip. - - - - - -
29/02:30pm 21.2 SE 13 22 1018.4 - 0.4 - - - - - - -
29/02:05pm 21.2 SE 14 34 1018.5 - 0.4 - - - - - - -
29/02:00pm 21.9 SE 12 23 1018.5 - 0.4 - - - - - - -
29/01:41pm 21.3 SE 14 26 1018.6 - 0.4 - - - - - - -
29/01:30pm 20.7 SE 17 32 1018.8 - 0.4 - - - - - - -
29/01:04pm 20.3 SE 17 35 1019.2 - 0.4 - - - - - - -
29/01:00pm 20.7 SE 15 25 1019.3 - 0.4 - - - - - - -
29/12:30pm 21.0 SE 16 27 1019.5 - 0.2 - - - - - - -
29/12:07pm 20.5 SSE 15 27 1019.9 - 0.2 - - - - - - -
29/12:00pm 20.5 S 12 19 1020.0 - 0.0 - - - - - - -
29/11:39am 20.3 S 15 25 1020.3 - 0.0 - - - - - - -
29/11:30am 20.3 S 16 23 1020.4 - 0.0 - - - - - - -
29/11:00am 20.8 S 11 18 1020.7 - 0.0 - - - - - - -
29/10:30am 20.4 S 17 24 1021.0 - 0.0 - - - - - - -
29/10:07am 20.9 S 17 27 1021.1 - 0.0 - - - - - - -
29/10:00am 21.0 S 19 26 1021.1 - 0.0 - - - - - - -
29/09:51am 21.2 S 15 26 1021.1 - 0.0 - - - - - - -
29/09:30am 21.0 S 17 25 1021.3 - 0.0 - - - - - - -
29/09:00am 21.1 S 18 25 1021.1 - 0.2 - - - - - - -
29/08:30am 20.4 S 20 25 1021.1 - 0.2 - - - - - - -
29/08:00am 20.5 S 20 25 1021.0 - 0.2 - - - - - - -
29/07:30am 20.5 S 22 27 1020.7 - 0.2 - - - - - - -
29/07:00am 20.2 S 21 26 1020.3 - 0.2 - - - - - - -
29/06:30am 20.5 S 21 26 1020.0 - 0.2 - - - - - - -
29/06:00am 20.4 S 16 24 1019.8 - 0.2 - - - - - - -
29/05:30am 20.6 S 21 24 1019.6 - 0.2 - - - - - - -
29/05:00am 20.8 S 20 25 1019.3 - 0.2 - - - - - - -
29/04:30am 20.3 S 21 25 1019.4 - 0.2 - - - - - - -
29/04:00am 20.4 S 23 30 1019.4 - 0.2 - - - - - - -
29/03:30am 19.8 S 23 29 1019.5 - 0.2 - - - - - - -
29/03:00am 20.0 S 24 30 1019.4 - 0.2 Recent precip. - - - - - -
29/02:30am 20.1 S 21 25 1019.7 - 0.0 - - - - - - -
29/02:00am 20.6 S 21 26 1020.0 - 0.0 - - - - - - -
29/01:30am 20.7 S 19 25 1020.2 - 0.0 - - - - - - -
29/01:00am 20.5 S 19 27 1020.5 - 0.0 - - - - - - -
29/12:30am 20.1 S 17 24 1020.8 - 0.0 - - - - - - -
29/12:00am 20.1 S 15 21 1021.1 - 0.0 - - - - - - -
 
Date/Time
EST
Temp

°C
Wind Pressure Rain
since 9am
mm
Weather Cloud Vis
km
Sea
Height
m
Swell
Dir
 
Speed
knots
Gust
knots
hPa Trend Height
m
Period
s
Dir
28/11:30pm 20.9 S 14 22 1021.3 - 0.0 - - - - - - -
28/11:00pm 21.2 S 12 19 1021.5 - 0.0 - - - - - - -
28/10:33pm 21.4 SE 16 26 1021.5 - 0.0 - - - - - - -
28/10:30pm 21.4 SE 18 26 1021.4 - 0.0 - - - - - - -
28/10:11pm 22.4 SSE 12 29 1021.1 - 0.0 - - - - - - -
28/10:00pm 22.5 S 9 14 1021.3 - 0.0 - - - - - - -
28/09:30pm 21.6 SE 19 32 1021.3 - 0.0 - - - - - - -
28/09:10pm 22.3 SE 17 33 1021.0 - 0.0 - - - - - - -
28/09:07pm 22.7 SE 15 29 1021.0 - 0.0 - - - - - - -
28/09:00pm 22.9 SSE 11 21 1021.2 - 0.0 - - - - - - -
28/08:33pm 23.2 SE 17 29 1020.9 - 0.0 - - - - - - -
28/08:30pm 23.3 SE 17 25 1020.8 - 0.0 - - - - - - -
28/08:00pm 23.2 SE 17 27 1020.8 - 0.0 - - - - - - -
28/07:34pm 23.2 SE 21 32 1020.6 - 0.0 - - - - - - -
28/07:30pm 23.2 SE 21 29 1020.7 - 0.0 - - - - - - -
28/07:00pm 23.4 SE 16 27 1020.4 - 0.0 - - - - - - -
28/06:56pm 23.4 SE 15 25 1020.4 - 0.0 - - - - - - -
28/06:30pm 22.9 SE 12 20 1020.2 - 0.0 - - - - - - -
28/06:00pm 22.6 S 9 15 1020.4 - 0.0 - - - - - - -
28/05:30pm 21.7 SSE 10 16 1020.2 - 0.0 - - - - - - -
28/05:00pm 21.5 ESE 18 29 1020.0 - 0.0 - - - - - - -
28/04:36pm 23.1 SE 14 27 1019.8 - 0.0 - - - - - - -
28/04:30pm 22.7 SSE 13 28 1019.8 - 0.0 - - - - - - -
28/04:00pm 22.7 SE 16 27 1019.9 - 0.0 - - - - - - -
28/03:47pm 23.1 SE 15 25 1019.5 - 0.0 - - - - - - -
28/03:30pm 23.2 SE 12 19 1019.5 - 0.0 - - - - - - -
28/03:00pm 23.1 S 12 17 1019.7 - 0.0 - - - - - - -
28/02:30pm 22.9 S 9 13 1019.9 - 0.0 - - - - - - -
28/02:00pm 22.0 S 7 11 1020.2 - 0.0 - - - - - - -
28/01:30pm 21.2 SSE 9 14 1020.6 - 0.0 - - - - - - -
28/01:00pm 20.7 S 11 18 1021.0 - 0.0 - - - - - - -
28/12:30pm 22.5 S 15 23 1021.0 - 0.0 - - - - - - -
28/12:00pm 22.5 S 15 23 1021.2 - 0.0 - - - - - - -
28/11:30am 22.1 S 20 25 1021.6 - 0.0 - - - - - - -
28/11:00am 21.9 S 18 22 1021.7 - 0.0 - - - - - - -
28/10:30am 21.8 S 18 21 1021.8 - 0.0 - - - - - - -
28/10:00am 21.6 S 17 23 1021.9 - 0.0 - - - - - - -
28/09:30am 21.6 S 17 21 1022.0 - 0.0 - - - - - - -
28/09:00am 21.7 S 20 25 1022.0 - 0.0 - - - - - - -
28/08:30am 21.4 S 18 24 1021.7 - 0.0 - - - - - - -
28/08:00am 21.6 S 20 24 1021.5 - 0.0 - - - - - - -
28/07:30am 21.6 S 18 24 1021.3 - 0.0 - - - - - - -
28/07:00am 21.3 S 15 22 1021.1 - 0.0 - - - - - - -
28/06:30am 21.4 S 15 23 1020.8 - 0.0 - - - - - - -
28/06:00am 21.8 S 15 23 1020.6 - 0.0 - - - - - - -
28/05:30am 21.8 S 12 16 1020.5 - 0.0 - - - - - - -
28/05:00am 21.7 S 13 21 1020.3 - 0.0 - - - - - - -
28/04:30am 21.7 S 12 16 1020.4 - 0.0 - - - - - - -
28/04:00am 21.5 S 11 19 1020.2 - 0.0 - - - - - - -
28/03:30am 21.6 S 11 17 1020.3 - 0.0 - - - - - - -

Other Formats:

Comma delimited format used in spreadsheet applications
http://www.bom.gov.au/fwo/IDQ60701/IDQ60701.94295.axf

JavaScript Object Notation format (JSON) in row-major order
http://www.bom.gov.au/fwo/IDQ60701/IDQ60701.94295.json